sensor_id;sensor_type;location;lat;lon;timestamp;temperature;humidity
24049;DHT22;12250;50.956;4.746;2023-06-14T00:01:45;17.30;82.80
24049;DHT22;12250;50.956;4.746;2023-06-14T00:04:12;17.30;82.70
24049;DHT22;12250;50.956;4.746;2023-06-14T00:06:38;17.30;82.50
24049;DHT22;12250;50.956;4.746;2023-06-14T00:09:04;17.30;83.00
24049;DHT22;12250;50.956;4.746;2023-06-14T00:11:33;17.30;83.50
24049;DHT22;12250;50.956;4.746;2023-06-14T00:13:59;17.30;84.20
24049;DHT22;12250;50.956;4.746;2023-06-14T00:16:24;17.20;84.60
24049;DHT22;12250;50.956;4.746;2023-06-14T00:18:50;17.20;85.60
24049;DHT22;12250;50.956;4.746;2023-06-14T00:21:17;17.10;86.60
24049;DHT22;12250;50.956;4.746;2023-06-14T00:23:43;17.10;87.10
24049;DHT22;12250;50.956;4.746;2023-06-14T00:26:09;17.00;87.30
24049;DHT22;12250;50.956;4.746;2023-06-14T00:28:34;17.00;87.40
24049;DHT22;12250;50.956;4.746;2023-06-14T00:31:00;17.00;87.80
24049;DHT22;12250;50.956;4.746;2023-06-14T00:33:25;17.00;87.70
24049;DHT22;12250;50.956;4.746;2023-06-14T00:35:51;17.00;87.70
24049;DHT22;12250;50.956;4.746;2023-06-14T00:38:20;17.00;88.40
24049;DHT22;12250;50.956;4.746;2023-06-14T00:40:46;17.00;88.60
24049;DHT22;12250;50.956;4.746;2023-06-14T00:43:12;16.90;89.30
24049;DHT22;12250;50.956;4.746;2023-06-14T00:45:38;17.00;89.70
24049;DHT22;12250;50.956;4.746;2023-06-14T00:48:05;16.90;90.20
24049;DHT22;12250;50.956;4.746;2023-06-14T00:50:32;16.90;90.50
24049;DHT22;12250;50.956;4.746;2023-06-14T00:53:02;16.80;90.70
24049;DHT22;12250;50.956;4.746;2023-06-14T00:55:28;16.80;90.70
24049;DHT22;12250;50.956;4.746;2023-06-14T00:57:55;16.80;90.90
24049;DHT22;12250;50.956;4.746;2023-06-14T01:00:21;16.70;91.10
24049;DHT22;12250;50.956;4.746;2023-06-14T01:02:47;16.70;91.30
24049;DHT22;12250;50.956;4.746;2023-06-14T01:05:15;16.70;91.60
24049;DHT22;12250;50.956;4.746;2023-06-14T01:13:12;16.60;92.60
24049;DHT22;12250;50.956;4.746;2023-06-14T01:15:38;16.50;93.20
24049;DHT22;12250;50.956;4.746;2023-06-14T01:18:05;16.60;92.90
24049;DHT22;12250;50.956;4.746;2023-06-14T01:20:34;16.50;92.80
24049;DHT22;12250;50.956;4.746;2023-06-14T01:23:03;16.50;93.30
24049;DHT22;12250;50.956;4.746;2023-06-14T01:25:29;16.50;93.30
24049;DHT22;12250;50.956;4.746;2023-06-14T01:28:02;16.50;93.30
24049;DHT22;12250;50.956;4.746;2023-06-14T01:30:29;16.50;92.80
24049;DHT22;12250;50.956;4.746;2023-06-14T01:32:57;16.60;92.60
24049;DHT22;12250;50.956;4.746;2023-06-14T01:35:23;16.60;92.50
24049;DHT22;12250;50.956;4.746;2023-06-14T01:37:50;16.60;92.80
24049;DHT22;12250;50.956;4.746;2023-06-14T01:40:18;16.50;92.90
24049;DHT22;12250;50.956;4.746;2023-06-14T01:42:46;16.60;93.10
24049;DHT22;12250;50.956;4.746;2023-06-14T01:45:12;16.50;93.20
24049;DHT22;12250;50.956;4.746;2023-06-14T01:47:39;16.50;93.40
24049;DHT22;12250;50.956;4.746;2023-06-14T01:50:06;16.40;93.90
24049;DHT22;12250;50.956;4.746;2023-06-14T01:52:32;16.40;94.30
24049;DHT22;12250;50.956;4.746;2023-06-14T01:54:57;16.40;94.20
24049;DHT22;12250;50.956;4.746;2023-06-14T01:57:25;16.40;94.20
24049;DHT22;12250;50.956;4.746;2023-06-14T01:59:52;16.30;94.60
24049;DHT22;12250;50.956;4.746;2023-06-14T02:02:18;16.30;94.80
24049;DHT22;12250;50.956;4.746;2023-06-14T02:04:44;16.20;94.90
24049;DHT22;12250;50.956;4.746;2023-06-14T02:07:11;16.20;95.10
24049;DHT22;12250;50.956;4.746;2023-06-14T02:09:37;16.20;95.30
24049;DHT22;12250;50.956;4.746;2023-06-14T02:12:03;16.10;95.50
24049;DHT22;12250;50.956;4.746;2023-06-14T02:14:28;16.10;95.70
24049;DHT22;12250;50.956;4.746;2023-06-14T02:16:54;16.10;95.80
24049;DHT22;12250;50.956;4.746;2023-06-14T02:19:20;16.10;96.00
24049;DHT22;12250;50.956;4.746;2023-06-14T02:21:47;16.00;96.10
24049;DHT22;12250;50.956;4.746;2023-06-14T02:24:13;16.00;96.30
24049;DHT22;12250;50.956;4.746;2023-06-14T02:26:38;16.00;96.40
24049;DHT22;12250;50.956;4.746;2023-06-14T02:29:05;16.00;96.50
24049;DHT22;12250;50.956;4.746;2023-06-14T02:31:32;16.00;96.70
24049;DHT22;12250;50.956;4.746;2023-06-14T02:33:58;16.00;97.10
24049;DHT22;12250;50.956;4.746;2023-06-14T02:36:24;15.90;97.30
24049;DHT22;12250;50.956;4.746;2023-06-14T02:38:50;15.90;97.40
24049;DHT22;12250;50.956;4.746;2023-06-14T02:41:15;15.80;97.70
24049;DHT22;12250;50.956;4.746;2023-06-14T02:43:41;15.80;97.80
24049;DHT22;12250;50.956;4.746;2023-06-14T02:46:07;15.80;98.00
24049;DHT22;12250;50.956;4.746;2023-06-14T02:48:32;15.70;98.30
24049;DHT22;12250;50.956;4.746;2023-06-14T02:50:58;15.70;98.40
24049;DHT22;12250;50.956;4.746;2023-06-14T02:53:24;15.70;98.60
24049;DHT22;12250;50.956;4.746;2023-06-14T02:55:49;15.60;98.90
24049;DHT22;12250;50.956;4.746;2023-06-14T02:58:15;15.60;99.30
24049;DHT22;12250;50.956;4.746;2023-06-14T03:00:42;15.60;99.50
24049;DHT22;12250;50.956;4.746;2023-06-14T03:03:08;15.50;99.90
24049;DHT22;12250;50.956;4.746;2023-06-14T03:05:44;15.50;99.90
24049;DHT22;12250;50.956;4.746;2023-06-14T03:08:13;15.50;99.90
24049;DHT22;12250;50.956;4.746;2023-06-14T03:10:46;15.40;99.90
24049;DHT22;12250;50.956;4.746;2023-06-14T03:13:13;15.40;99.90
24049;DHT22;12250;50.956;4.746;2023-06-14T03:15:38;15.30;99.90
24049;DHT22;12250;50.956;4.746;2023-06-14T03:18:08;15.30;99.90
24049;DHT22;12250;50.956;4.746;2023-06-14T03:20:35;15.30;99.90
24049;DHT22;12250;50.956;4.746;2023-06-14T03:23:01;15.30;99.90
24049;DHT22;12250;50.956;4.746;2023-06-14T03:25:27;15.30;99.90
24049;DHT22;12250;50.956;4.746;2023-06-14T03:27:57;15.20;99.90
24049;DHT22;12250;50.956;4.746;2023-06-14T03:30:23;15.20;99.90
24049;DHT22;12250;50.956;4.746;2023-06-14T03:32:49;15.20;99.90
24049;DHT22;12250;50.956;4.746;2023-06-14T03:35:17;15.20;99.90
24049;DHT22;12250;50.956;4.746;2023-06-14T03:37:46;15.10;99.90
24049;DHT22;12250;50.956;4.746;2023-06-14T03:40:13;15.10;99.90
24049;DHT22;12250;50.956;4.746;2023-06-14T03:42:39;15.10;99.90
24049;DHT22;12250;50.956;4.746;2023-06-14T03:45:06;15.10;99.90
24049;DHT22;12250;50.956;4.746;2023-06-14T03:47:32;15.10;99.90
24049;DHT22;12250;50.956;4.746;2023-06-14T03:49:58;15.10;99.90
24049;DHT22;12250;50.956;4.746;2023-06-14T03:52:24;15.10;99.90
24049;DHT22;12250;50.956;4.746;2023-06-14T03:54:50;15.10;99.90
24049;DHT22;12250;50.956;4.746;2023-06-14T03:57:17;15.10;99.90
24049;DHT22;12250;50.956;4.746;2023-06-14T03:59:43;15.10;99.90
24049;DHT22;12250;50.956;4.746;2023-06-14T04:02:08;15.10;99.90
24049;DHT22;12250;50.956;4.746;2023-06-14T04:04:40;15.20;99.90
24049;DHT22;12250;50.956;4.746;2023-06-14T04:07:10;15.20;99.90
24049;DHT22;12250;50.956;4.746;2023-06-14T04:09:37;15.20;99.90
24049;DHT22;12250;50.956;4.746;2023-06-14T04:12:03;15.20;99.90
24049;DHT22;12250;50.956;4.746;2023-06-14T04:14:29;15.30;99.90
24049;DHT22;12250;50.956;4.746;2023-06-14T04:16:56;15.30;99.90
24049;DHT22;12250;50.956;4.746;2023-06-14T04:19:22;15.40;99.90
24049;DHT22;12250;50.956;4.746;2023-06-14T04:21:47;15.50;99.90
24049;DHT22;12250;50.956;4.746;2023-06-14T04:24:13;15.50;99.90
24049;DHT22;12250;50.956;4.746;2023-06-14T04:26:40;15.60;99.90
24049;DHT22;12250;50.956;4.746;2023-06-14T04:29:06;15.60;99.90
24049;DHT22;12250;50.956;4.746;2023-06-14T04:31:32;15.60;99.90
24049;DHT22;12250;50.956;4.746;2023-06-14T04:34:03;15.70;99.90
24049;DHT22;12250;50.956;4.746;2023-06-14T04:36:34;15.80;99.90
24049;DHT22;12250;50.956;4.746;2023-06-14T04:39:05;15.80;99.90
24049;DHT22;12250;50.956;4.746;2023-06-14T04:41:31;15.90;99.90
24049;DHT22;12250;50.956;4.746;2023-06-14T04:44:00;15.90;99.90
24049;DHT22;12250;50.956;4.746;2023-06-14T04:46:29;16.00;99.90
24049;DHT22;12250;50.956;4.746;2023-06-14T04:48:55;16.00;99.90
24049;DHT22;12250;50.956;4.746;2023-06-14T04:51:22;16.10;99.90
24049;DHT22;12250;50.956;4.746;2023-06-14T04:53:58;16.10;99.90
24049;DHT22;12250;50.956;4.746;2023-06-14T04:56:24;16.20;99.90
24049;DHT22;12250;50.956;4.746;2023-06-14T04:58:50;16.30;99.90
24049;DHT22;12250;50.956;4.746;2023-06-14T05:01:17;16.30;99.90
24049;DHT22;12250;50.956;4.746;2023-06-14T05:03:42;16.40;99.90
24049;DHT22;12250;50.956;4.746;2023-06-14T05:06:10;16.50;99.90
24049;DHT22;12250;50.956;4.746;2023-06-14T05:08:37;16.60;99.90
24049;DHT22;12250;50.956;4.746;2023-06-14T05:11:03;16.70;99.90
24049;DHT22;12250;50.956;4.746;2023-06-14T05:13:28;16.80;99.90
24049;DHT22;12250;50.956;4.746;2023-06-14T05:15:54;16.80;99.90
24049;DHT22;12250;50.956;4.746;2023-06-14T05:18:20;16.90;99.90
24049;DHT22;12250;50.956;4.746;2023-06-14T05:20:45;16.90;99.90
24049;DHT22;12250;50.956;4.746;2023-06-14T05:23:11;17.10;99.80
24049;DHT22;12250;50.956;4.746;2023-06-14T05:25:42;17.10;99.50
24049;DHT22;12250;50.956;4.746;2023-06-14T05:28:08;17.30;99.30
24049;DHT22;12250;50.956;4.746;2023-06-14T05:30:34;17.30;99.10
24049;DHT22;12250;50.956;4.746;2023-06-14T05:33:00;17.40;99.00
24049;DHT22;12250;50.956;4.746;2023-06-14T05:35:26;17.50;99.00
24049;DHT22;12250;50.956;4.746;2023-06-14T05:37:53;17.60;99.00
24049;DHT22;12250;50.956;4.746;2023-06-14T05:40:19;17.70;98.90
24049;DHT22;12250;50.956;4.746;2023-06-14T05:42:45;17.80;98.70
24049;DHT22;12250;50.956;4.746;2023-06-14T05:45:11;17.90;98.40
24049;DHT22;12250;50.956;4.746;2023-06-14T05:47:37;18.00;98.20
24049;DHT22;12250;50.956;4.746;2023-06-14T05:50:03;18.10;97.40
24049;DHT22;12250;50.956;4.746;2023-06-14T05:52:28;18.20;97.10
24049;DHT22;12250;50.956;4.746;2023-06-14T05:54:55;18.30;96.40
24049;DHT22;12250;50.956;4.746;2023-06-14T05:57:20;18.40;96.10
24049;DHT22;12250;50.956;4.746;2023-06-14T05:59:46;18.50;96.00
24049;DHT22;12250;50.956;4.746;2023-06-14T06:02:12;18.50;95.90
24049;DHT22;12250;50.956;4.746;2023-06-14T06:04:37;18.70;94.80
24049;DHT22;12250;50.956;4.746;2023-06-14T06:07:03;18.80;94.90
24049;DHT22;12250;50.956;4.746;2023-06-14T06:09:29;18.90;94.80
24049;DHT22;12250;50.956;4.746;2023-06-14T06:11:55;19.00;94.30
24049;DHT22;12250;50.956;4.746;2023-06-14T06:14:20;19.00;94.30
24049;DHT22;12250;50.956;4.746;2023-06-14T06:16:46;19.20;94.30
24049;DHT22;12250;50.956;4.746;2023-06-14T06:19:12;19.20;93.80
24049;DHT22;12250;50.956;4.746;2023-06-14T06:21:37;19.30;92.90
24049;DHT22;12250;50.956;4.746;2023-06-14T06:24:04;19.40;92.70
24049;DHT22;12250;50.956;4.746;2023-06-14T06:26:31;19.50;92.70
24049;DHT22;12250;50.956;4.746;2023-06-14T06:28:57;19.60;92.50
24049;DHT22;12250;50.956;4.746;2023-06-14T06:31:23;19.70;92.30
24049;DHT22;12250;50.956;4.746;2023-06-14T06:33:49;19.80;91.90
24049;DHT22;12250;50.956;4.746;2023-06-14T06:36:15;19.90;91.70
24049;DHT22;12250;50.956;4.746;2023-06-14T06:38:41;19.90;91.60
24049;DHT22;12250;50.956;4.746;2023-06-14T06:41:07;20.00;91.40
24049;DHT22;12250;50.956;4.746;2023-06-14T06:43:32;20.20;90.70
24049;DHT22;12250;50.956;4.746;2023-06-14T06:45:58;20.30;90.70
24049;DHT22;12250;50.956;4.746;2023-06-14T06:48:23;20.40;90.70
24049;DHT22;12250;50.956;4.746;2023-06-14T06:50:49;20.50;90.70
24049;DHT22;12250;50.956;4.746;2023-06-14T06:53:14;20.60;90.40
24049;DHT22;12250;50.956;4.746;2023-06-14T06:55:40;20.70;87.50
24049;DHT22;12250;50.956;4.746;2023-06-14T06:58:06;20.80;87.00
24049;DHT22;12250;50.956;4.746;2023-06-14T07:00:31;20.80;86.10
24049;DHT22;12250;50.956;4.746;2023-06-14T07:02:57;20.90;85.50
24049;DHT22;12250;50.956;4.746;2023-06-14T07:05:23;21.00;85.20
24049;DHT22;12250;50.956;4.746;2023-06-14T07:07:49;21.10;85.10
24049;DHT22;12250;50.956;4.746;2023-06-14T07:10:14;21.10;83.70
24049;DHT22;12250;50.956;4.746;2023-06-14T07:12:40;21.20;82.40
24049;DHT22;12250;50.956;4.746;2023-06-14T07:15:07;21.30;82.20
24049;DHT22;12250;50.956;4.746;2023-06-14T07:17:34;21.50;82.50
24049;DHT22;12250;50.956;4.746;2023-06-14T07:20:00;21.60;81.40
24049;DHT22;12250;50.956;4.746;2023-06-14T07:22:26;21.80;80.40
24049;DHT22;12250;50.956;4.746;2023-06-14T07:24:51;21.90;78.90
24049;DHT22;12250;50.956;4.746;2023-06-14T07:27:17;22.00;78.70
24049;DHT22;12250;50.956;4.746;2023-06-14T07:29:43;22.10;78.20
24049;DHT22;12250;50.956;4.746;2023-06-14T07:32:08;22.10;76.10
24049;DHT22;12250;50.956;4.746;2023-06-14T07:34:34;22.20;76.80
24049;DHT22;12250;50.956;4.746;2023-06-14T07:36:59;22.30;75.10
24049;DHT22;12250;50.956;4.746;2023-06-14T07:39:25;22.40;75.80
24049;DHT22;12250;50.956;4.746;2023-06-14T07:41:50;22.50;75.80
24049;DHT22;12250;50.956;4.746;2023-06-14T07:44:16;22.60;76.70
24049;DHT22;12250;50.956;4.746;2023-06-14T07:46:42;22.80;77.20
24049;DHT22;12250;50.956;4.746;2023-06-14T07:49:07;23.00;75.40
24049;DHT22;12250;50.956;4.746;2023-06-14T07:51:33;23.00;75.70
24049;DHT22;12250;50.956;4.746;2023-06-14T07:53:59;23.10;76.80
24049;DHT22;12250;50.956;4.746;2023-06-14T07:56:26;23.20;77.20
24049;DHT22;12250;50.956;4.746;2023-06-14T07:58:52;23.30;76.50
24049;DHT22;12250;50.956;4.746;2023-06-14T08:01:17;23.40;75.40
24049;DHT22;12250;50.956;4.746;2023-06-14T08:03:45;23.40;74.90
24049;DHT22;12250;50.956;4.746;2023-06-14T08:06:11;23.50;73.60
24049;DHT22;12250;50.956;4.746;2023-06-14T08:08:38;23.70;75.20
24049;DHT22;12250;50.956;4.746;2023-06-14T08:11:03;24.00;75.10
24049;DHT22;12250;50.956;4.746;2023-06-14T08:13:29;24.20;71.70
24049;DHT22;12250;50.956;4.746;2023-06-14T08:15:55;24.60;71.40
24049;DHT22;12250;50.956;4.746;2023-06-14T08:18:22;26.90;65.10
24049;DHT22;12250;50.956;4.746;2023-06-14T08:20:48;30.30;54.90
24049;DHT22;12250;50.956;4.746;2023-06-14T08:23:14;32.80;48.00
24049;DHT22;12250;50.956;4.746;2023-06-14T08:25:39;35.20;43.30
24049;DHT22;12250;50.956;4.746;2023-06-14T08:28:05;37.50;38.00
24049;DHT22;12250;50.956;4.746;2023-06-14T08:30:30;39.10;34.30
24049;DHT22;12250;50.956;4.746;2023-06-14T08:32:56;40.20;31.80
24049;DHT22;12250;50.956;4.746;2023-06-14T08:35:22;40.00;30.50
24049;DHT22;12250;50.956;4.746;2023-06-14T08:37:48;40.20;29.40
24049;DHT22;12250;50.956;4.746;2023-06-14T08:40:18;40.20;28.90
24049;DHT22;12250;50.956;4.746;2023-06-14T08:42:48;40.50;28.50
24049;DHT22;12250;50.956;4.746;2023-06-14T08:45:15;41.00;28.90
24049;DHT22;12250;50.956;4.746;2023-06-14T08:47:41;41.40;27.60
24049;DHT22;12250;50.956;4.746;2023-06-14T08:50:07;42.20;27.50
24049;DHT22;12250;50.956;4.746;2023-06-14T08:52:35;42.80;26.10
24049;DHT22;12250;50.956;4.746;2023-06-14T08:55:06;42.90;26.20
24049;DHT22;12250;50.956;4.746;2023-06-14T08:57:33;43.60;25.90
24049;DHT22;12250;50.956;4.746;2023-06-14T09:00:03;44.30;25.30
24049;DHT22;12250;50.956;4.746;2023-06-14T09:02:37;44.10;24.30
24049;DHT22;12250;50.956;4.746;2023-06-14T09:05:03;43.40;24.40
24049;DHT22;12250;50.956;4.746;2023-06-14T09:07:29;42.00;25.10
24049;DHT22;12250;50.956;4.746;2023-06-14T09:10:08;41.90;25.40
24049;DHT22;12250;50.956;4.746;2023-06-14T09:12:35;42.30;25.30
24049;DHT22;12250;50.956;4.746;2023-06-14T09:15:01;43.20;24.50
24049;DHT22;12250;50.956;4.746;2023-06-14T09:17:32;43.00;24.40
24049;DHT22;12250;50.956;4.746;2023-06-14T09:19:58;44.10;24.50
24049;DHT22;12250;50.956;4.746;2023-06-14T09:22:24;44.60;23.70
24049;DHT22;12250;50.956;4.746;2023-06-14T09:24:50;44.80;23.30
24049;DHT22;12250;50.956;4.746;2023-06-14T09:27:16;43.80;23.20
24049;DHT22;12250;50.956;4.746;2023-06-14T09:29:41;43.40;23.90
24049;DHT22;12250;50.956;4.746;2023-06-14T09:32:07;43.80;23.80
24049;DHT22;12250;50.956;4.746;2023-06-14T09:34:34;44.90;22.90
24049;DHT22;12250;50.956;4.746;2023-06-14T09:37:01;45.40;22.30
24049;DHT22;12250;50.956;4.746;2023-06-14T09:39:26;44.60;21.90
24049;DHT22;12250;50.956;4.746;2023-06-14T09:41:52;44.50;22.50
24049;DHT22;12250;50.956;4.746;2023-06-14T09:44:18;45.40;22.00
24049;DHT22;12250;50.956;4.746;2023-06-14T09:46:45;45.60;21.40
24049;DHT22;12250;50.956;4.746;2023-06-14T09:49:11;45.70;21.50
24049;DHT22;12250;50.956;4.746;2023-06-14T09:51:43;45.70;22.00
24049;DHT22;12250;50.956;4.746;2023-06-14T09:54:15;46.10;21.40
24049;DHT22;12250;50.956;4.746;2023-06-14T09:56:43;46.30;20.40
24049;DHT22;12250;50.956;4.746;2023-06-14T09:59:10;46.80;21.40
24049;DHT22;12250;50.956;4.746;2023-06-14T10:01:43;47.00;20.10
24049;DHT22;12250;50.956;4.746;2023-06-14T10:04:09;45.60;20.30
24049;DHT22;12250;50.956;4.746;2023-06-14T10:06:43;45.70;21.10
24049;DHT22;12250;50.956;4.746;2023-06-14T10:09:10;46.20;21.00
24049;DHT22;12250;50.956;4.746;2023-06-14T10:11:37;46.00;20.50
24049;DHT22;12250;50.956;4.746;2023-06-14T10:14:10;45.20;20.90
24049;DHT22;12250;50.956;4.746;2023-06-14T10:16:59;44.10;21.50
24049;DHT22;12250;50.956;4.746;2023-06-14T10:19:41;44.50;21.60
24049;DHT22;12250;50.956;4.746;2023-06-14T10:22:14;44.10;21.50
24049;DHT22;12250;50.956;4.746;2023-06-14T10:24:43;44.40;20.90
24049;DHT22;12250;50.956;4.746;2023-06-14T10:27:10;44.50;21.30
24049;DHT22;12250;50.956;4.746;2023-06-14T10:32:20;44.70;21.00
24049;DHT22;12250;50.956;4.746;2023-06-14T10:34:45;44.60;21.50
24049;DHT22;12250;50.956;4.746;2023-06-14T10:37:18;44.50;21.20
24049;DHT22;12250;50.956;4.746;2023-06-14T10:39:44;44.90;21.30
24049;DHT22;12250;50.956;4.746;2023-06-14T10:42:14;45.50;21.10
24049;DHT22;12250;50.956;4.746;2023-06-14T10:44:44;46.10;20.30
24049;DHT22;12250;50.956;4.746;2023-06-14T10:47:20;46.70;20.60
24049;DHT22;12250;50.956;4.746;2023-06-14T10:49:50;46.80;19.90
24049;DHT22;12250;50.956;4.746;2023-06-14T10:52:19;47.40;20.00
24049;DHT22;12250;50.956;4.746;2023-06-14T10:55:09;47.40;19.40
24049;DHT22;12250;50.956;4.746;2023-06-14T10:57:37;47.30;19.70
24049;DHT22;12250;50.956;4.746;2023-06-14T11:00:05;48.00;19.30
24049;DHT22;12250;50.956;4.746;2023-06-14T11:05:30;46.90;18.90
24049;DHT22;12250;50.956;4.746;2023-06-14T11:10:50;45.80;19.20
24049;DHT22;12250;50.956;4.746;2023-06-14T11:13:19;46.10;19.40
24049;DHT22;12250;50.956;4.746;2023-06-14T11:15:47;46.10;20.30
24049;DHT22;12250;50.956;4.746;2023-06-14T11:18:13;45.50;19.80
24049;DHT22;12250;50.956;4.746;2023-06-14T11:20:39;45.30;19.20
24049;DHT22;12250;50.956;4.746;2023-06-14T11:23:05;44.30;19.80
24049;DHT22;12250;50.956;4.746;2023-06-14T11:25:31;44.40;20.10
24049;DHT22;12250;50.956;4.746;2023-06-14T11:27:57;43.70;20.40
24049;DHT22;12250;50.956;4.746;2023-06-14T11:30:24;41.90;21.50
24049;DHT22;12250;50.956;4.746;2023-06-14T11:32:54;41.00;22.00
24049;DHT22;12250;50.956;4.746;2023-06-14T11:35:23;40.60;22.80
24049;DHT22;12250;50.956;4.746;2023-06-14T11:37:53;39.90;22.90
24049;DHT22;12250;50.956;4.746;2023-06-14T11:40:19;39.60;22.80
24049;DHT22;12250;50.956;4.746;2023-06-14T11:42:45;38.70;23.50
24049;DHT22;12250;50.956;4.746;2023-06-14T11:45:11;38.50;23.50
24049;DHT22;12250;50.956;4.746;2023-06-14T11:47:39;37.90;23.90
24049;DHT22;12250;50.956;4.746;2023-06-14T11:50:06;37.40;24.30
24049;DHT22;12250;50.956;4.746;2023-06-14T11:52:33;36.20;24.40
24049;DHT22;12250;50.956;4.746;2023-06-14T11:54:59;35.80;25.80
24049;DHT22;12250;50.956;4.746;2023-06-14T11:57:26;35.50;25.80
24049;DHT22;12250;50.956;4.746;2023-06-14T11:59:52;35.40;25.80
24049;DHT22;12250;50.956;4.746;2023-06-14T12:02:21;34.40;27.40
24049;DHT22;12250;50.956;4.746;2023-06-14T12:04:47;34.00;27.10
24049;DHT22;12250;50.956;4.746;2023-06-14T12:07:17;34.10;26.90
24049;DHT22;12250;50.956;4.746;2023-06-14T12:12:23;33.50;27.80
24049;DHT22;12250;50.956;4.746;2023-06-14T12:14:50;32.80;28.90
24049;DHT22;12250;50.956;4.746;2023-06-14T12:17:17;32.60;29.00
24049;DHT22;12250;50.956;4.746;2023-06-14T12:19:43;32.50;29.70
24049;DHT22;12250;50.956;4.746;2023-06-14T12:22:10;32.80;29.50
24049;DHT22;12250;50.956;4.746;2023-06-14T12:24:35;32.40;29.70
24049;DHT22;12250;50.956;4.746;2023-06-14T12:27:01;32.20;30.00
24049;DHT22;12250;50.956;4.746;2023-06-14T12:29:30;31.90;29.90
24049;DHT22;12250;50.956;4.746;2023-06-14T12:31:56;31.50;29.50
24049;DHT22;12250;50.956;4.746;2023-06-14T12:34:27;31.30;32.50
24049;DHT22;12250;50.956;4.746;2023-06-14T12:36:55;31.30;30.50
24049;DHT22;12250;50.956;4.746;2023-06-14T12:39:22;31.40;30.70
24049;DHT22;12250;50.956;4.746;2023-06-14T12:41:48;31.40;29.90
24049;DHT22;12250;50.956;4.746;2023-06-14T12:44:14;31.00;29.80
24049;DHT22;12250;50.956;4.746;2023-06-14T12:46:43;31.00;31.00
24049;DHT22;12250;50.956;4.746;2023-06-14T12:49:10;31.20;30.60
24049;DHT22;12250;50.956;4.746;2023-06-14T12:51:37;31.20;28.70
24049;DHT22;12250;50.956;4.746;2023-06-14T12:54:03;31.10;29.30
24049;DHT22;12250;50.956;4.746;2023-06-14T12:56:29;31.20;30.60
24049;DHT22;12250;50.956;4.746;2023-06-14T12:58:54;31.10;29.10
24049;DHT22;12250;50.956;4.746;2023-06-14T13:01:20;31.20;30.00
24049;DHT22;12250;50.956;4.746;2023-06-14T13:03:48;31.00;29.60
24049;DHT22;12250;50.956;4.746;2023-06-14T13:06:16;31.10;30.60
24049;DHT22;12250;50.956;4.746;2023-06-14T13:08:41;31.10;29.40
24049;DHT22;12250;50.956;4.746;2023-06-14T13:11:07;31.10;29.80
24049;DHT22;12250;50.956;4.746;2023-06-14T13:13:32;30.90;29.10
24049;DHT22;12250;50.956;4.746;2023-06-14T13:15:58;30.50;28.70
24049;DHT22;12250;50.956;4.746;2023-06-14T13:18:24;30.50;30.20
24049;DHT22;12250;50.956;4.746;2023-06-14T13:20:49;30.70;31.20
24049;DHT22;12250;50.956;4.746;2023-06-14T13:23:15;30.80;29.70
24049;DHT22;12250;50.956;4.746;2023-06-14T13:25:41;30.50;29.70
24049;DHT22;12250;50.956;4.746;2023-06-14T13:28:07;30.20;29.40
24049;DHT22;12250;50.956;4.746;2023-06-14T13:30:33;30.20;30.20
24049;DHT22;12250;50.956;4.746;2023-06-14T13:32:59;30.40;29.80
24049;DHT22;12250;50.956;4.746;2023-06-14T13:35:25;30.50;30.30
24049;DHT22;12250;50.956;4.746;2023-06-14T13:37:51;30.30;29.40
24049;DHT22;12250;50.956;4.746;2023-06-14T13:40:17;30.20;29.20
24049;DHT22;12250;50.956;4.746;2023-06-14T13:42:43;30.20;29.40
24049;DHT22;12250;50.956;4.746;2023-06-14T13:45:11;30.50;29.20
24049;DHT22;12250;50.956;4.746;2023-06-14T13:47:38;30.60;28.90
24049;DHT22;12250;50.956;4.746;2023-06-14T13:50:04;30.70;29.40
24049;DHT22;12250;50.956;4.746;2023-06-14T13:52:30;30.80;30.00
24049;DHT22;12250;50.956;4.746;2023-06-14T13:54:55;31.00;29.60
24049;DHT22;12250;50.956;4.746;2023-06-14T13:57:21;31.00;29.30
24049;DHT22;12250;50.956;4.746;2023-06-14T13:59:47;30.80;28.80
24049;DHT22;12250;50.956;4.746;2023-06-14T14:02:13;30.80;30.00
24049;DHT22;12250;50.956;4.746;2023-06-14T14:04:40;31.00;31.00
24049;DHT22;12250;50.956;4.746;2023-06-14T14:07:06;31.10;29.00
24049;DHT22;12250;50.956;4.746;2023-06-14T14:09:33;30.80;28.60
24049;DHT22;12250;50.956;4.746;2023-06-14T14:12:00;30.60;28.90
24049;DHT22;12250;50.956;4.746;2023-06-14T14:14:26;30.60;29.90
24049;DHT22;12250;50.956;4.746;2023-06-14T14:16:52;30.80;30.60
24049;DHT22;12250;50.956;4.746;2023-06-14T14:19:20;30.80;30.60
24049;DHT22;12250;50.956;4.746;2023-06-14T14:21:45;30.20;30.30
24049;DHT22;12250;50.956;4.746;2023-06-14T14:24:11;30.10;31.10
24049;DHT22;12250;50.956;4.746;2023-06-14T14:26:37;30.20;31.40
24049;DHT22;12250;50.956;4.746;2023-06-14T14:29:02;30.50;30.60
24049;DHT22;12250;50.956;4.746;2023-06-14T14:31:28;30.50;30.40
24049;DHT22;12250;50.956;4.746;2023-06-14T14:33:54;30.30;31.80
24049;DHT22;12250;50.956;4.746;2023-06-14T14:36:19;30.20;31.50
24049;DHT22;12250;50.956;4.746;2023-06-14T14:38:45;30.30;31.90
24049;DHT22;12250;50.956;4.746;2023-06-14T14:41:12;30.30;30.60
24049;DHT22;12250;50.956;4.746;2023-06-14T14:43:38;30.30;30.80
24049;DHT22;12250;50.956;4.746;2023-06-14T14:46:04;30.40;30.10
24049;DHT22;12250;50.956;4.746;2023-06-14T14:48:29;30.40;31.00
24049;DHT22;12250;50.956;4.746;2023-06-14T14:50:55;30.60;31.60
24049;DHT22;12250;50.956;4.746;2023-06-14T14:53:21;30.70;29.80
24049;DHT22;12250;50.956;4.746;2023-06-14T14:55:46;30.70;30.30
24049;DHT22;12250;50.956;4.746;2023-06-14T14:58:12;30.90;30.70
24049;DHT22;12250;50.956;4.746;2023-06-14T15:00:38;31.10;30.60
24049;DHT22;12250;50.956;4.746;2023-06-14T15:03:04;31.30;30.10
24049;DHT22;12250;50.956;4.746;2023-06-14T15:05:29;31.30;31.10
24049;DHT22;12250;50.956;4.746;2023-06-14T15:07:55;31.30;32.30
24049;DHT22;12250;50.956;4.746;2023-06-14T15:10:21;30.90;29.80
24049;DHT22;12250;50.956;4.746;2023-06-14T15:12:46;30.50;30.10
24049;DHT22;12250;50.956;4.746;2023-06-14T15:15:12;30.40;30.60
24049;DHT22;12250;50.956;4.746;2023-06-14T15:17:37;30.30;31.30
24049;DHT22;12250;50.956;4.746;2023-06-14T15:20:03;29.80;30.80
24049;DHT22;12250;50.956;4.746;2023-06-14T15:22:31;29.70;31.20
24049;DHT22;12250;50.956;4.746;2023-06-14T15:24:57;29.70;32.00
24049;DHT22;12250;50.956;4.746;2023-06-14T15:27:22;29.80;34.50
24049;DHT22;12250;50.956;4.746;2023-06-14T15:29:48;30.10;33.80
24049;DHT22;12250;50.956;4.746;2023-06-14T15:32:13;30.30;33.60
24049;DHT22;12250;50.956;4.746;2023-06-14T15:34:39;30.30;33.10
24049;DHT22;12250;50.956;4.746;2023-06-14T15:37:06;30.50;33.30
24049;DHT22;12250;50.956;4.746;2023-06-14T15:39:32;30.40;31.70
24049;DHT22;12250;50.956;4.746;2023-06-14T15:41:58;30.30;31.50
24049;DHT22;12250;50.956;4.746;2023-06-14T15:44:25;30.20;30.60